Time;durP1;ratioP1;P1;durP2;ratioP2;P2;SDS_P1;SDS_P2;PMS_P1;PMS_P2;Temp;Humidity;BMP_temperature;BMP_pressure;BME280_temperature;BME280_humidity;BME280_pressure;Samples;Min_cycle;Max_cycle;Signal;HPM_P1;HPM_P2
2022/06/18 00:00:48;;;;;;;;;;;24.30;78.50;;;;;;4958838;29;19918;-77
2022/06/18 00:03:14;;;;;;;;;;;24.20;78.70;;;;;;4958673;29;19911;-77
2022/06/18 00:05:40;;;;;;;;;;;24.20;79.20;;;;;;4958607;29;19965;-79
2022/06/18 00:08:09;;;;;;;;;;;24.10;79.50;;;;;;4958569;29;20377;-77
2022/06/18 00:10:35;;;;;;;;;;;24.10;79.90;;;;;;4958540;29;20030;-77
2022/06/18 00:15:56;;;;;;;;;;;24.00;80.70;;;;;;4958562;29;19977;-78
2022/06/18 00:18:21;;;;;;;;;;;23.60;83.40;;;;;;4958544;29;19910;-79
2022/06/18 00:20:47;;;;;;;;;;;23.30;86.30;;;;;;4958463;29;19918;-78
2022/06/18 00:23:14;;;;;;;;;;;23.40;85.60;;;;;;4958541;29;19970;-78
2022/06/18 00:25:41;;;;;;;;;;;23.50;85.20;;;;;;4958264;29;19914;-77
2022/06/18 00:28:10;;;;;;;;;;;23.60;84.30;;;;;;4940895;29;19933;-78
2022/06/18 00:30:35;;;;;;;;;;;23.70;83.70;;;;;;4958190;29;19918;-78
2022/06/18 00:33:01;;;;;;;;;;;23.90;83.30;;;;;;4958123;29;19911;-77
2022/06/18 00:35:27;;;;;;;;;;;23.80;83.50;;;;;;4958099;29;20375;-78
2022/06/18 00:37:56;;;;;;;;;;;23.70;84.50;;;;;;4958365;29;19954;-78
2022/06/18 00:40:27;;;;;;;;;;;23.70;85.30;;;;;;4958064;29;20023;-77
2022/06/18 00:42:54;;;;;;;;;;;23.70;85.80;;;;;;4957977;29;19911;-78
2022/06/18 00:45:23;;;;;;;;;;;23.60;86.20;;;;;;4957865;29;20363;-78
2022/06/18 00:48:02;;;;;;;;;;;23.50;86.60;;;;;;4957624;29;20409;-77
2022/06/18 00:50:30;;;;;;;;;;;23.50;86.90;;;;;;4957944;29;19915;-79
2022/06/18 00:53:06;;;;;;;;;;;23.30;87.60;;;;;;4957003;28;19911;-79
2022/06/18 00:55:35;;;;;;;;;;;23.40;87.60;;;;;;4957991;29;19911;-79
2022/06/18 00:58:05;;;;;;;;;;;23.30;88.20;;;;;;4957716;29;19914;-78
2022/06/18 01:00:37;;;;;;;;;;;23.10;88.90;;;;;;4957719;29;20371;-79
2022/06/18 01:03:03;;;;;;;;;;;23.10;88.40;;;;;;4957723;29;19918;-77
2022/06/18 01:05:39;;;;;;;;;;;23.10;89.00;;;;;;4957499;29;19937;-79
2022/06/18 01:08:14;;;;;;;;;;;23.10;88.30;;;;;;4957576;29;19918;-78
2022/06/18 01:10:41;;;;;;;;;;;23.10;88.50;;;;;;4940000;29;19917;-78
2022/06/18 01:13:08;;;;;;;;;;;23.10;88.30;;;;;;4957451;29;19918;-79
2022/06/18 01:15:34;;;;;;;;;;;23.00;88.00;;;;;;4957402;29;19973;-77
2022/06/18 01:18:00;;;;;;;;;;;23.10;87.40;;;;;;4957545;29;19953;-77
2022/06/18 01:20:26;;;;;;;;;;;23.10;88.00;;;;;;4957327;29;19918;-78
2022/06/18 01:22:55;;;;;;;;;;;23.00;88.30;;;;;;4957291;29;19911;-77
2022/06/18 01:25:21;;;;;;;;;;;23.00;89.40;;;;;;4957089;29;20362;-78
2022/06/18 01:27:47;;;;;;;;;;;22.70;90.40;;;;;;4957371;29;19918;-78
2022/06/18 01:30:15;;;;;;;;;;;22.80;90.10;;;;;;4957293;29;19911;-79
2022/06/18 01:32:41;;;;;;;;;;;22.90;90.00;;;;;;4957097;29;19914;-78
2022/06/18 01:35:07;;;;;;;;;;;22.90;90.20;;;;;;4957025;29;19910;-78
2022/06/18 01:37:33;;;;;;;;;;;22.90;90.30;;;;;;4956997;29;19918;-79
2022/06/18 01:39:59;;;;;;;;;;;22.80;90.30;;;;;;4957362;29;20376;-78
2022/06/18 01:42:31;;;;;;;;;;;22.80;90.60;;;;;;4957086;29;20303;-78
2022/06/18 01:44:58;;;;;;;;;;;22.70;90.60;;;;;;4957014;29;19917;-78
2022/06/18 01:47:29;;;;;;;;;;;22.70;90.60;;;;;;4956680;29;19910;-78
2022/06/18 01:49:57;;;;;;;;;;;22.50;91.40;;;;;;4956361;29;19926;-78
2022/06/18 01:52:26;;;;;;;;;;;22.50;91.80;;;;;;4939518;29;20290;-78
2022/06/18 01:54:53;;;;;;;;;;;22.50;91.70;;;;;;4956953;29;19953;-78
2022/06/18 01:57:23;;;;;;;;;;;22.50;91.70;;;;;;4956726;29;20272;-78
2022/06/18 01:59:51;;;;;;;;;;;22.40;92.00;;;;;;4956987;29;20001;-78
2022/06/18 02:02:16;;;;;;;;;;;22.30;92.20;;;;;;4956551;29;19918;-76
2022/06/18 02:04:42;;;;;;;;;;;22.30;92.50;;;;;;4956368;28;19911;-79
2022/06/18 02:07:08;;;;;;;;;;;22.10;92.80;;;;;;4956376;29;20393;-79
2022/06/18 02:09:39;;;;;;;;;;;21.90;93.80;;;;;;4956416;29;19918;-77
2022/06/18 02:12:11;;;;;;;;;;;21.90;94.10;;;;;;4956355;29;19911;-78
2022/06/18 02:14:38;;;;;;;;;;;21.80;94.50;;;;;;4956446;29;20001;-78
2022/06/18 02:17:06;;;;;;;;;;;21.90;94.90;;;;;;4956277;29;20002;-79
2022/06/18 02:19:34;;;;;;;;;;;21.70;96.00;;;;;;4956190;29;20379;-78
2022/06/18 02:21:59;;;;;;;;;;;21.80;95.30;;;;;;4956333;29;19910;-78
2022/06/18 02:24:25;;;;;;;;;;;21.90;94.80;;;;;;4956276;29;19921;-79
2022/06/18 02:26:51;;;;;;;;;;;22.00;94.70;;;;;;4956114;29;20287;-78
2022/06/18 02:29:26;;;;;;;;;;;22.00;94.50;;;;;;4956122;29;19997;-78
2022/06/18 02:31:51;;;;;;;;;;;22.00;94.40;;;;;;4956554;29;19910;-79
2022/06/18 02:34:19;;;;;;;;;;;22.00;94.40;;;;;;4956144;29;19918;-77
2022/06/18 02:36:45;;;;;;;;;;;22.00;94.20;;;;;;4955951;29;20068;-78
2022/06/18 02:39:32;;;;;;;;;;;22.00;94.50;;;;;;4956114;29;19970;-78
2022/06/18 02:42:06;;;;;;;;;;;21.90;94.80;;;;;;4945840;29;20383;-78
2022/06/18 02:44:32;;;;;;;;;;;21.80;95.30;;;;;;4956047;29;20382;-78
2022/06/18 02:47:00;;;;;;;;;;;21.70;95.70;;;;;;4955750;29;19966;-78
2022/06/18 02:49:25;;;;;;;;;;;21.70;95.60;;;;;;4955615;29;19926;-78
2022/06/18 02:51:51;;;;;;;;;;;21.80;95.20;;;;;;4955726;29;19917;-78
2022/06/18 02:54:18;;;;;;;;;;;21.90;95.10;;;;;;4955733;29;19946;-79
2022/06/18 02:56:44;;;;;;;;;;;21.80;95.40;;;;;;4938521;29;19917;-78
2022/06/18 02:59:09;;;;;;;;;;;21.70;95.70;;;;;;4955608;29;19915;-78
2022/06/18 03:01:35;;;;;;;;;;;21.30;97.30;;;;;;4955621;29;20342;-77
2022/06/18 03:04:01;;;;;;;;;;;21.10;98.60;;;;;;4955833;29;19910;-78
2022/06/18 03:06:27;;;;;;;;;;;21.00;98.90;;;;;;4955687;29;19922;-77
2022/06/18 03:08:53;;;;;;;;;;;20.90;99.80;;;;;;4955638;29;20383;-79
2022/06/18 03:14:04;;;;;;;;;;;21.20;98.50;;;;;;4955530;29;19966;-78
2022/06/18 03:16:30;;;;;;;;;;;21.40;97.40;;;;;;4940646;29;19911;-77
2022/06/18 03:18:57;;;;;;;;;;;21.40;97.30;;;;;;4959483;29;19914;-77
2022/06/18 03:21:29;;;;;;;;;;;21.40;97.20;;;;;;4959583;29;20042;-78
2022/06/18 03:23:54;;;;;;;;;;;21.20;97.50;;;;;;4959425;29;19997;-78
2022/06/18 03:26:20;;;;;;;;;;;21.10;98.20;;;;;;4959651;29;20466;-78
2022/06/18 03:28:46;;;;;;;;;;;21.00;98.60;;;;;;4959487;29;20487;-78
2022/06/18 03:31:12;;;;;;;;;;;20.90;98.90;;;;;;4959271;29;19910;-79
2022/06/18 03:33:38;;;;;;;;;;;21.00;99.20;;;;;;4959284;29;20264;-78
2022/06/18 03:36:04;;;;;;;;;;;21.00;99.20;;;;;;4959229;29;19910;-78
2022/06/18 03:38:30;;;;;;;;;;;21.20;98.70;;;;;;4959188;29;19911;-78
2022/06/18 03:40:56;;;;;;;;;;;21.30;98.50;;;;;;4959135;29;19921;-78
2022/06/18 03:43:22;;;;;;;;;;;21.40;98.40;;;;;;4959049;29;19911;-78
2022/06/18 03:45:53;;;;;;;;;;;21.40;98.50;;;;;;4959147;29;20025;-78
2022/06/18 03:48:23;;;;;;;;;;;21.20;98.90;;;;;;4958746;29;19922;-79
2022/06/18 03:50:49;;;;;;;;;;;21.10;99.50;;;;;;4958997;29;19911;-78
2022/06/18 03:53:15;;;;;;;;;;;21.10;99.80;;;;;;4958935;29;20352;-78
2022/06/18 03:55:40;;;;;;;;;;;21.10;99.40;;;;;;4958854;29;19942;-79
2022/06/18 03:58:06;;;;;;;;;;;21.10;99.30;;;;;;4958802;29;20330;-78
2022/06/18 04:00:32;;;;;;;;;;;21.20;99.20;;;;;;4958876;29;19917;-78
2022/06/18 04:02:57;;;;;;;;;;;21.20;99.10;;;;;;4958701;29;19981;-77
2022/06/18 04:05:23;;;;;;;;;;;21.20;99.10;;;;;;4958628;29;19964;-78
2022/06/18 04:07:48;;;;;;;;;;;21.10;99.50;;;;;;4958645;29;19918;-77
2022/06/18 04:10:16;;;;;;;;;;;21.20;99.50;;;;;;4958624;29;20375;-78
2022/06/18 04:12:42;;;;;;;;;;;21.30;99.20;;;;;;4958579;29;19933;-78
2022/06/18 04:15:08;;;;;;;;;;;21.30;98.90;;;;;;4958769;29;20348;-77
2022/06/18 04:17:33;;;;;;;;;;;21.30;99.00;;;;;;4958478;29;19911;-78
2022/06/18 04:19:59;;;;;;;;;;;21.30;98.70;;;;;;4958388;29;19918;-78
2022/06/18 04:22:25;;;;;;;;;;;21.30;98.80;;;;;;4958614;29;19914;-77
2022/06/18 04:24:51;;;;;;;;;;;21.20;98.90;;;;;;4958453;29;19911;-77
2022/06/18 04:27:16;;;;;;;;;;;21.30;99.20;;;;;;4956860;28;19914;-78
2022/06/18 04:29:42;;;;;;;;;;;21.30;99.00;;;;;;4958671;29;19961;-78
2022/06/18 04:32:08;;;;;;;;;;;21.30;98.90;;;;;;4958204;29;20028;-77
2022/06/18 04:34:33;;;;;;;;;;;21.30;99.20;;;;;;4958411;29;19917;-78
2022/06/18 04:36:59;;;;;;;;;;;21.30;99.60;;;;;;4958204;29;19911;-79
2022/06/18 04:39:26;;;;;;;;;;;21.50;99.10;;;;;;4940709;29;19917;-78
2022/06/18 04:41:51;;;;;;;;;;;21.50;99.00;;;;;;4958204;29;20331;-78
2022/06/18 04:44:17;;;;;;;;;;;21.60;98.70;;;;;;4958191;29;19966;-78
2022/06/18 04:46:42;;;;;;;;;;;21.60;98.70;;;;;;4957814;29;19914;-78
2022/06/18 04:49:08;;;;;;;;;;;21.50;98.70;;;;;;4957718;29;20283;-77
2022/06/18 04:51:33;;;;;;;;;;;21.50;98.60;;;;;;4940591;29;19938;-77
2022/06/18 04:53:59;;;;;;;;;;;21.40;99.40;;;;;;4958195;29;19917;-78
2022/06/18 04:56:25;;;;;;;;;;;21.30;99.30;;;;;;4957897;29;19923;-78
2022/06/18 04:58:50;;;;;;;;;;;21.40;99.20;;;;;;4957702;29;20001;-78
2022/06/18 05:01:17;;;;;;;;;;;21.60;98.70;;;;;;4957710;29;19937;-76
2022/06/18 05:03:43;;;;;;;;;;;21.70;98.50;;;;;;4957678;29;20286;-77
2022/06/18 05:06:09;;;;;;;;;;;21.80;98.00;;;;;;4957649;29;19914;-79
2022/06/18 05:08:35;;;;;;;;;;;21.80;98.00;;;;;;4957814;29;20291;-78
2022/06/18 05:11:00;;;;;;;;;;;22.00;97.60;;;;;;4957575;29;20363;-77
2022/06/18 05:13:26;;;;;;;;;;;22.10;97.30;;;;;;4957460;29;19914;-78
2022/06/18 05:15:53;;;;;;;;;;;22.20;97.10;;;;;;4957446;29;19970;-78
2022/06/18 05:18:20;;;;;;;;;;;22.20;97.00;;;;;;4957667;29;20006;-78
2022/06/18 05:20:49;;;;;;;;;;;22.30;96.80;;;;;;4957314;29;20329;-78
2022/06/18 05:23:15;;;;;;;;;;;22.30;96.70;;;;;;4957299;29;19945;-78
2022/06/18 05:25:41;;;;;;;;;;;22.40;96.60;;;;;;4957221;29;20362;-78
2022/06/18 05:28:06;;;;;;;;;;;22.10;97.90;;;;;;4957188;29;19929;-78
2022/06/18 05:30:32;;;;;;;;;;;21.80;99.60;;;;;;4957171;29;20009;-78
2022/06/18 05:32:58;;;;;;;;;;;21.60;99.90;;;;;;4957086;29;19911;-78
2022/06/18 05:35:23;;;;;;;;;;;21.80;99.90;;;;;;4957290;29;20330;-77
2022/06/18 05:37:50;;;;;;;;;;;22.10;99.10;;;;;;4956946;28;19911;-78
2022/06/18 05:40:16;;;;;;;;;;;22.20;98.60;;;;;;4956944;29;19915;-78
2022/06/18 05:42:41;;;;;;;;;;;22.30;98.10;;;;;;4957034;29;20330;-79
2022/06/18 05:45:08;;;;;;;;;;;22.40;97.60;;;;;;4956831;29;19911;-78
2022/06/18 05:47:34;;;;;;;;;;;22.60;97.30;;;;;;4956745;29;20001;-78
2022/06/18 05:50:00;;;;;;;;;;;22.80;96.30;;;;;;4956637;29;19965;-79
2022/06/18 05:52:26;;;;;;;;;;;22.80;96.60;;;;;;4939507;29;19914;-78
2022/06/18 05:54:52;;;;;;;;;;;22.90;95.80;;;;;;4956699;29;19943;-78
2022/06/18 05:57:19;;;;;;;;;;;22.90;95.80;;;;;;4956653;29;19911;-79
2022/06/18 05:59:45;;;;;;;;;;;23.00;95.30;;;;;;4956628;29;19910;-78
2022/06/18 06:02:11;;;;;;;;;;;23.10;95.10;;;;;;4956546;29;19966;-79
2022/06/18 06:04:39;;;;;;;;;;;23.30;94.60;;;;;;4956499;29;19922;-79
2022/06/18 06:07:10;;;;;;;;;;;23.50;94.10;;;;;;4956427;29;19915;-78
2022/06/18 06:12:20;;;;;;;;;;;23.60;93.20;;;;;;4956274;29;19957;-78
2022/06/18 06:14:45;;;;;;;;;;;23.70;92.90;;;;;;4956334;29;19946;-79
2022/06/18 06:17:13;;;;;;;;;;;23.60;93.00;;;;;;4956309;29;19910;-77
2022/06/18 06:19:39;;;;;;;;;;;23.60;93.70;;;;;;4956281;29;19954;-78
2022/06/18 06:22:05;;;;;;;;;;;23.70;93.30;;;;;;4956205;29;19961;-78
2022/06/18 06:24:30;;;;;;;;;;;23.80;92.90;;;;;;4956086;29;19918;-79
2022/06/18 06:26:56;;;;;;;;;;;24.00;93.20;;;;;;4956081;29;19918;-79
2022/06/18 06:29:21;;;;;;;;;;;24.20;92.80;;;;;;4956124;29;19917;-79
2022/06/18 06:31:47;;;;;;;;;;;24.40;92.30;;;;;;4956102;29;19961;-79
2022/06/18 06:34:12;;;;;;;;;;;24.50;91.90;;;;;;4956051;29;20283;-78
2022/06/18 06:36:38;;;;;;;;;;;24.50;91.50;;;;;;4956011;29;20394;-78
2022/06/18 06:39:04;;;;;;;;;;;24.50;91.80;;;;;;4955914;29;19955;-79
2022/06/18 06:41:30;;;;;;;;;;;24.90;91.10;;;;;;4955900;29;19910;-77
2022/06/18 06:43:55;;;;;;;;;;;25.20;90.40;;;;;;4956038;29;19915;-79
2022/06/18 06:46:21;;;;;;;;;;;25.40;90.20;;;;;;4955841;29;19951;-78
2022/06/18 06:48:47;;;;;;;;;;;25.70;89.60;;;;;;4955602;29;20487;-78
2022/06/18 06:51:14;;;;;;;;;;;25.90;88.40;;;;;;4955478;28;20300;-78
2022/06/18 06:53:39;;;;;;;;;;;26.00;88.90;;;;;;4955779;29;20375;-79
2022/06/18 06:58:49;;;;;;;;;;;26.00;89.70;;;;;;4955450;29;19965;-79
2022/06/18 07:01:15;;;;;;;;;;;26.20;89.50;;;;;;4955862;29;19910;-78
2022/06/18 07:03:41;;;;;;;;;;;26.20;87.50;;;;;;4955587;29;19961;-79
2022/06/18 07:06:06;;;;;;;;;;;26.50;87.70;;;;;;4955578;29;19921;-79
2022/06/18 07:08:32;;;;;;;;;;;26.60;86.80;;;;;;4955586;29;19917;-78
2022/06/18 07:10:58;;;;;;;;;;;26.70;86.30;;;;;;4955567;29;19910;-78
2022/06/18 07:13:23;;;;;;;;;;;26.80;86.20;;;;;;4955556;29;20358;-79
2022/06/18 07:15:50;;;;;;;;;;;27.10;86.10;;;;;;4955557;29;19966;-79
2022/06/18 07:18:18;;;;;;;;;;;27.40;84.80;;;;;;4955530;29;19914;-79
2022/06/18 07:20:44;;;;;;;;;;;27.40;84.10;;;;;;4955899;29;20375;-79
2022/06/18 07:23:10;;;;;;;;;;;27.50;84.60;;;;;;4955598;29;19918;-78
2022/06/18 07:25:35;;;;;;;;;;;27.70;83.60;;;;;;4955374;29;20057;-80
2022/06/18 07:28:01;;;;;;;;;;;27.90;83.50;;;;;;4955249;29;19919;-78
2022/06/18 07:30:26;;;;;;;;;;;28.00;83.00;;;;;;4955379;29;19910;-79
2022/06/18 07:32:52;;;;;;;;;;;28.00;83.30;;;;;;4955354;29;19993;-78
2022/06/18 07:35:19;;;;;;;;;;;28.20;82.30;;;;;;4955304;29;19911;-78
2022/06/18 07:37:45;;;;;;;;;;;28.10;82.80;;;;;;4938104;29;20390;-78
2022/06/18 07:40:11;;;;;;;;;;;28.00;83.50;;;;;;4955714;29;19950;-78
2022/06/18 07:42:36;;;;;;;;;;;28.10;83.80;;;;;;4955398;29;19910;-79
2022/06/18 07:45:03;;;;;;;;;;;28.60;82.80;;;;;;4955516;29;19965;-79
2022/06/18 07:47:28;;;;;;;;;;;29.30;81.30;;;;;;4955302;29;19914;-79
2022/06/18 07:49:54;;;;;;;;;;;30.60;77.00;;;;;;4954802;29;19997;-80
2022/06/18 07:52:19;;;;;;;;;;;32.30;72.10;;;;;;4955207;29;19917;-81
2022/06/18 07:54:45;;;;;;;;;;;33.80;68.60;;;;;;4955536;29;19918;-81
2022/06/18 07:57:11;;;;;;;;;;;34.90;64.50;;;;;;4955026;29;20389;-80
2022/06/18 07:59:38;;;;;;;;;;;34.50;61.30;;;;;;4937713;29;19915;-81
2022/06/18 08:02:04;;;;;;;;;;;33.80;61.70;;;;;;4956439;28;19917;-81
2022/06/18 08:04:30;;;;;;;;;;;33.60;62.30;;;;;;4958880;29;19910;-81
2022/06/18 08:06:55;;;;;;;;;;;33.70;62.30;;;;;;4958553;29;19926;-81
2022/06/18 08:09:21;;;;;;;;;;;34.10;61.60;;;;;;4958554;29;20300;-80
2022/06/18 08:11:46;;;;;;;;;;;34.80;59.60;;;;;;4958516;29;19967;-80
2022/06/18 08:14:13;;;;;;;;;;;34.60;59.20;;;;;;4958488;29;19910;-80
2022/06/18 08:16:38;;;;;;;;;;;35.40;58.50;;;;;;4958849;29;20355;-81
2022/06/18 08:19:04;;;;;;;;;;;36.20;58.10;;;;;;4958623;29;19948;-82
2022/06/18 08:21:34;;;;;;;;;;;36.60;56.80;;;;;;4958430;29;19911;-79
2022/06/18 08:24:01;;;;;;;;;;;37.10;55.70;;;;;;4958395;29;20438;-82
2022/06/18 08:26:27;;;;;;;;;;;37.40;54.90;;;;;;4958236;29;20425;-81
2022/06/18 08:28:53;;;;;;;;;;;36.40;54.30;;;;;;4942314;28;20010;-80
2022/06/18 08:31:19;;;;;;;;;;;35.80;54.70;;;;;;4977268;28;19917;-82
2022/06/18 08:33:44;;;;;;;;;;;35.50;55.40;;;;;;4954027;28;20310;-80
2022/06/18 08:36:12;;;;;;;;;;;34.60;57.20;;;;;;4977598;28;19910;-80
2022/06/18 08:38:41;;;;;;;;;;;34.20;57.60;;;;;;4977752;28;19918;-80
2022/06/18 08:41:10;;;;;;;;;;;33.60;57.90;;;;;;4977608;28;20326;-80
2022/06/18 08:43:36;;;;;;;;;;;33.60;58.80;;;;;;4977269;28;19953;-80
2022/06/18 08:46:06;;;;;;;;;;;33.80;58.50;;;;;;4977350;28;19957;-80
2022/06/18 08:48:45;;;;;;;;;;;34.40;58.20;;;;;;4977145;28;20001;-82
2022/06/18 08:51:32;;;;;;;;;;;35.00;58.10;;;;;;4977277;28;19961;-81
2022/06/18 08:54:09;;;;;;;;;;;35.10;57.90;;;;;;4976976;28;20318;-81
2022/06/18 08:56:44;;;;;;;;;;;35.70;56.90;;;;;;4977221;28;19914;-81
2022/06/18 08:59:28;;;;;;;;;;;36.10;56.60;;;;;;4977221;28;20426;-80
2022/06/18 09:01:59;;;;;;;;;;;35.90;55.20;;;;;;4977184;28;19993;-81
2022/06/18 09:04:36;;;;;;;;;;;36.50;55.40;;;;;;4976863;28;19998;-81
2022/06/18 09:07:09;;;;;;;;;;;37.30;55.10;;;;;;4977026;28;19914;-80
2022/06/18 09:09:38;;;;;;;;;;;37.40;53.80;;;;;;4977037;28;19910;-82
2022/06/18 09:12:20;;;;;;;;;;;37.90;53.50;;;;;;4976870;28;19910;-80
2022/06/18 09:14:57;;;;;;;;;;;37.70;52.20;;;;;;4975909;28;20000;-80
2022/06/18 09:17:33;;;;;;;;;;;37.60;52.60;;;;;;4976933;28;19910;-80
2022/06/18 09:20:21;;;;;;;;;;;37.60;52.40;;;;;;4977285;28;19996;-82
2022/06/18 09:23:09;;;;;;;;;;;38.00;52.80;;;;;;4959290;28;20387;-80
2022/06/18 09:25:37;;;;;;;;;;;37.80;52.20;;;;;;4959105;28;19914;-81
2022/06/18 09:28:05;;;;;;;;;;;38.20;51.10;;;;;;4976611;28;19910;-80
2022/06/18 09:30:31;;;;;;;;;;;38.20;50.20;;;;;;4976875;28;19910;-80
2022/06/18 09:32:59;;;;;;;;;;;38.20;51.60;;;;;;4976329;28;19918;-82
2022/06/18 09:35:30;;;;;;;;;;;38.10;50.50;;;;;;4957094;28;19915;-81
2022/06/18 09:38:11;;;;;;;;;;;38.10;50.80;;;;;;4948769;29;19922;-81
2022/06/18 09:40:56;;;;;;;;;;;37.80;50.40;;;;;;4957024;29;20447;-82
2022/06/18 09:43:25;;;;;;;;;;;37.50;51.70;;;;;;4956745;28;19932;-81
2022/06/18 09:45:53;;;;;;;;;;;37.50;50.70;;;;;;4957212;29;19914;-81
2022/06/18 09:48:18;;;;;;;;;;;37.90;51.40;;;;;;4956748;28;19934;-81
2022/06/18 09:50:52;;;;;;;;;;;38.20;51.10;;;;;;4957290;29;19917;-79
2022/06/18 09:53:30;;;;;;;;;;;38.40;49.90;;;;;;4956582;28;19921;-82
2022/06/18 09:56:01;;;;;;;;;;;38.70;49.30;;;;;;4956770;29;20344;-80
2022/06/18 09:58:33;;;;;;;;;;;38.80;50.10;;;;;;4956901;29;19965;-82
2022/06/18 10:00:59;;;;;;;;;;;39.20;50.30;;;;;;4956416;29;20005;-81
2022/06/18 10:09:01;;;;;;;;;;;38.80;49.40;;;;;;4956132;29;19970;-81
2022/06/18 10:11:26;;;;;;;;;;;39.10;49.40;;;;;;4956544;29;20013;-80
2022/06/18 10:13:56;;;;;;;;;;;39.10;49.70;;;;;;4956677;29;19969;-80
2022/06/18 10:16:27;;;;;;;;;;;39.80;48.60;;;;;;4955295;29;20383;-81
2022/06/18 10:19:15;;;;;;;;;;;40.60;48.00;;;;;;4938775;29;19911;-80
2022/06/18 10:21:43;;;;;;;;;;;40.30;48.30;;;;;;4956270;29;20370;-81
2022/06/18 10:24:09;;;;;;;;;;;41.30;47.60;;;;;;4956134;28;19910;-80
2022/06/18 10:26:40;;;;;;;;;;;41.80;46.40;;;;;;4956103;29;19921;-81
2022/06/18 10:29:18;;;;;;;;;;;41.70;46.30;;;;;;4955817;29;19937;-81
2022/06/18 10:31:53;;;;;;;;;;;42.20;45.70;;;;;;4954449;29;19958;-82
2022/06/18 10:34:18;;;;;;;;;;;43.00;45.00;;;;;;4954030;28;19911;-80
2022/06/18 10:37:03;;;;;;;;;;;43.20;44.20;;;;;;4954156;29;20441;-82
2022/06/18 10:39:31;;;;;;;;;;;43.60;43.00;;;;;;4954117;29;19999;-82
2022/06/18 10:42:03;;;;;;;;;;;44.00;41.90;;;;;;4954051;29;19917;-82
2022/06/18 10:44:35;;;;;;;;;;;43.90;41.10;;;;;;4954326;29;20373;-80
2022/06/18 10:47:03;;;;;;;;;;;44.00;41.50;;;;;;4955763;29;19958;-80
2022/06/18 10:49:31;;;;;;;;;;;45.10;41.00;;;;;;4955533;29;19958;-79
2022/06/18 10:51:57;;;;;;;;;;;45.50;40.00;;;;;;4956191;29;19914;-78
2022/06/18 10:54:32;;;;;;;;;;;44.80;40.30;;;;;;4955915;28;19911;-80
2022/06/18 10:56:58;;;;;;;;;;;44.80;40.20;;;;;;4955765;28;19911;-81
2022/06/18 10:59:29;;;;;;;;;;;44.30;40.00;;;;;;4955756;29;19918;-82
2022/06/18 11:01:54;;;;;;;;;;;44.30;39.90;;;;;;4955903;29;20398;-82
2022/06/18 11:04:24;;;;;;;;;;;44.50;39.70;;;;;;4956227;29;19938;-82
2022/06/18 11:06:53;;;;;;;;;;;44.60;39.60;;;;;;4955568;28;19958;-80
2022/06/18 11:09:21;;;;;;;;;;;45.30;39.70;;;;;;4955566;29;19914;-79
2022/06/18 11:11:57;;;;;;;;;;;45.00;39.40;;;;;;4955551;29;19910;-79
2022/06/18 11:14:23;;;;;;;;;;;45.10;39.40;;;;;;4955578;29;20438;-80
2022/06/18 11:16:51;;;;;;;;;;;44.90;39.20;;;;;;4955424;28;19942;-79
2022/06/18 11:19:26;;;;;;;;;;;45.40;39.30;;;;;;4955525;29;20358;-79
2022/06/18 11:21:52;;;;;;;;;;;46.40;38.70;;;;;;4955481;29;19910;-79
2022/06/18 11:24:27;;;;;;;;;;;45.50;38.70;;;;;;4955510;29;19915;-80
2022/06/18 11:26:56;;;;;;;;;;;45.50;39.00;;;;;;4955467;29;19947;-80
2022/06/18 11:29:40;;;;;;;;;;;45.90;38.70;;;;;;4955413;28;19911;-80
2022/06/18 11:32:11;;;;;;;;;;;46.20;38.50;;;;;;4955654;29;19914;-79
2022/06/18 11:34:42;;;;;;;;;;;45.60;38.50;;;;;;4955236;29;19918;-79
2022/06/18 11:37:17;;;;;;;;;;;45.20;38.50;;;;;;4956832;28;19910;-79
2022/06/18 11:39:51;;;;;;;;;;;45.60;38.50;;;;;;4959096;29;19961;-80
2022/06/18 11:42:26;;;;;;;;;;;45.50;38.30;;;;;;4959260;29;19915;-79
2022/06/18 11:45:05;;;;;;;;;;;46.00;38.70;;;;;;4959053;29;19933;-80
2022/06/18 11:47:36;;;;;;;;;;;46.20;38.60;;;;;;4959138;28;19915;-79
2022/06/18 11:50:07;;;;;;;;;;;46.10;38.70;;;;;;4958518;29;19930;-79
2022/06/18 11:52:52;;;;;;;;;;;46.50;38.70;;;;;;4959196;29;19910;-78
2022/06/18 11:55:17;;;;;;;;;;;47.30;37.80;;;;;;4958945;29;20005;-78
2022/06/18 11:57:49;;;;;;;;;;;46.20;37.60;;;;;;4958864;29;19938;-79
2022/06/18 12:00:20;;;;;;;;;;;46.30;38.50;;;;;;4958793;28;20285;-79
2022/06/18 12:02:48;;;;;;;;;;;47.10;37.70;;;;;;4959360;29;19911;-78
2022/06/18 12:05:20;;;;;;;;;;;47.70;37.70;;;;;;4958762;28;19917;-81
2022/06/18 12:07:56;;;;;;;;;;;48.30;37.40;;;;;;4958846;29;19922;-78
2022/06/18 12:10:47;;;;;;;;;;;48.30;35.80;;;;;;4958683;29;19911;-78
2022/06/18 12:13:18;;;;;;;;;;;47.80;36.30;;;;;;4958922;29;20434;-78
2022/06/18 12:15:48;;;;;;;;;;;47.00;36.80;;;;;;4958650;29;19911;-80
2022/06/18 12:18:17;;;;;;;;;;;46.50;36.70;;;;;;4958608;29;20291;-80
2022/06/18 12:21:06;;;;;;;;;;;47.30;37.20;;;;;;4958396;28;20295;-80
2022/06/18 12:23:41;;;;;;;;;;;47.50;37.00;;;;;;4952670;29;19911;-79
2022/06/18 12:26:21;;;;;;;;;;;47.00;36.90;;;;;;4958280;29;20043;-80
2022/06/18 12:29:02;;;;;;;;;;;47.50;36.90;;;;;;4958323;29;19914;-80
2022/06/18 12:31:59;;;;;;;;;;;47.20;36.80;;;;;;4958460;29;19965;-79
2022/06/18 12:34:27;;;;;;;;;;;46.90;37.20;;;;;;4949786;29;19910;-78
2022/06/18 12:36:53;;;;;;;;;;;48.20;36.50;;;;;;4958254;28;19911;-80
2022/06/18 12:39:27;;;;;;;;;;;48.90;36.00;;;;;;4958143;29;19953;-78
2022/06/18 12:41:56;;;;;;;;;;;48.10;35.70;;;;;;4958236;29;19977;-79
2022/06/18 12:44:21;;;;;;;;;;;48.10;35.50;;;;;;4958002;28;20368;-80
2022/06/18 12:46:56;;;;;;;;;;;47.80;36.00;;;;;;4957808;28;19921;-79
2022/06/18 12:49:36;;;;;;;;;;;47.30;35.80;;;;;;4956653;28;19922;-79
2022/06/18 12:52:11;;;;;;;;;;;47.70;35.70;;;;;;4958233;29;19910;-80
2022/06/18 12:54:39;;;;;;;;;;;47.90;35.50;;;;;;4958035;29;19946;-79
2022/06/18 12:57:13;;;;;;;;;;;49.30;35.50;;;;;;4957929;29;19915;-79
2022/06/18 12:59:43;;;;;;;;;;;49.30;35.10;;;;;;4957777;29;19910;-78
2022/06/18 13:02:09;;;;;;;;;;;49.50;34.70;;;;;;4957650;29;20353;-80
2022/06/18 13:04:34;;;;;;;;;;;49.40;35.00;;;;;;4957861;29;20005;-79
2022/06/18 13:07:06;;;;;;;;;;;49.40;35.10;;;;;;4957550;29;20292;-79
2022/06/18 13:09:41;;;;;;;;;;;48.40;35.50;;;;;;4957664;28;19911;-80
2022/06/18 13:12:18;;;;;;;;;;;48.40;35.20;;;;;;4958031;29;20395;-79
2022/06/18 13:15:01;;;;;;;;;;;48.00;35.60;;;;;;4957671;29;19910;-80
2022/06/18 13:17:31;;;;;;;;;;;47.60;35.60;;;;;;4957450;29;19915;-79
2022/06/18 13:20:00;;;;;;;;;;;47.60;35.80;;;;;;4957376;29;19914;-80
2022/06/18 13:22:26;;;;;;;;;;;47.80;35.80;;;;;;4957786;29;20268;-81
2022/06/18 13:30:39;;;;;;;;;;;50.20;34.10;;;;;;4957175;29;20442;-81
2022/06/18 13:33:10;;;;;;;;;;;50.70;34.10;;;;;;4957315;29;20010;-79
2022/06/18 13:35:39;;;;;;;;;;;50.10;33.70;;;;;;4957138;29;20326;-78
2022/06/18 13:38:07;;;;;;;;;;;49.80;33.90;;;;;;4957129;29;19965;-78
2022/06/18 13:40:43;;;;;;;;;;;49.30;34.00;;;;;;4957257;29;20393;-80
2022/06/18 13:43:39;;;;;;;;;;;49.60;33.70;;;;;;4957294;29;19911;-78
2022/06/18 13:46:08;;;;;;;;;;;49.40;33.60;;;;;;4921696;29;19958;-80
2022/06/18 13:48:45;;;;;;;;;;;49.70;33.90;;;;;;4939340;29;19926;-79
2022/06/18 13:51:11;;;;;;;;;;;49.60;34.30;;;;;;4957026;29;19918;-79
2022/06/18 13:53:38;;;;;;;;;;;48.90;33.40;;;;;;4956945;29;19914;-81
2022/06/18 13:56:19;;;;;;;;;;;50.00;33.30;;;;;;4956826;28;19911;-79
2022/06/18 13:58:50;;;;;;;;;;;51.00;32.90;;;;;;4956695;29;19917;-79
2022/06/18 14:01:17;;;;;;;;;;;50.20;37.70;;;;;;4956427;29;19910;-80
2022/06/18 14:03:44;;;;;;;;;;;49.70;39.10;;;;;;4956915;29;20264;-78
2022/06/18 14:06:11;;;;;;;;;;;48.90;40.10;;;;;;4956500;29;20390;-79
2022/06/18 14:08:55;;;;;;;;;;;48.80;40.30;;;;;;4956521;29;20434;-79
2022/06/18 14:11:29;;;;;;;;;;;48.60;40.70;;;;;;4956990;29;20275;-79
2022/06/18 14:13:57;;;;;;;;;;;48.20;40.10;;;;;;4956432;29;19949;-80
2022/06/18 14:16:27;;;;;;;;;;;48.60;40.00;;;;;;4956430;29;19910;-80
2022/06/18 14:19:03;;;;;;;;;;;48.20;40.50;;;;;;4956442;29;20293;-80
2022/06/18 14:21:29;;;;;;;;;;;48.70;40.60;;;;;;4956401;29;19917;-79
2022/06/18 14:23:55;;;;;;;;;;;48.90;40.20;;;;;;4955014;29;19911;-79
2022/06/18 14:26:21;;;;;;;;;;;48.80;40.30;;;;;;4956191;29;19918;-79
2022/06/18 14:28:49;;;;;;;;;;;48.30;40.40;;;;;;4956190;28;19919;-80
2022/06/18 14:31:36;;;;;;;;;;;48.30;41.00;;;;;;4956227;29;19961;-80
2022/06/18 14:34:08;;;;;;;;;;;48.90;40.60;;;;;;4956175;29;19932;-79
2022/06/18 14:36:36;;;;;;;;;;;49.20;40.80;;;;;;4956057;29;20009;-81
2022/06/18 14:39:04;;;;;;;;;;;48.90;41.00;;;;;;4956054;29;19918;-79
2022/06/18 14:41:39;;;;;;;;;;;47.20;41.00;;;;;;4956017;29;20001;-79
2022/06/18 14:44:24;;;;;;;;;;;46.40;42.80;;;;;;4956140;29;19918;-80
2022/06/18 14:46:58;;;;;;;;;;;45.90;43.00;;;;;;4955895;28;19911;-79
2022/06/18 14:49:36;;;;;;;;;;;47.40;42.80;;;;;;4955589;29;19977;-81